Time;durP1;ratioP1;P1;durP2;ratioP2;P2;SDS_P1;SDS_P2;PMS_P1;PMS_P2;Temp;Humidity;BMP_temperature;BMP_pressure;BME280_temperature;BME280_humidity;BME280_pressure;Samples;Min_cycle;Max_cycle;Signal;HPM_P1;HPM_P2
2023/01/20 00:02:23;;;;;;;9.15;2.13;;;;;;;;;;6292158;22;20631;-92
2023/01/20 00:04:51;;;;;;;5.30;2.10;;;;;;;;;;6288098;22;20026;-91
2023/01/20 00:07:19;;;;;;;12.93;2.00;;;;;;;;;;6322688;22;20035;-91
2023/01/20 00:09:55;;;;;;;4.47;1.75;;;;;;;;;;6277910;22;20025;-91
2023/01/20 00:12:23;;;;;;;4.63;1.88;;;;;;;;;;6244088;22;20045;-91
2023/01/20 00:14:51;;;;;;;6.38;1.90;;;;;;;;;;6257598;22;20068;-91
2023/01/20 00:17:19;;;;;;;4.15;1.60;;;;;;;;;;6285757;22;20039;-90
2023/01/20 00:19:47;;;;;;;6.35;2.35;;;;;;;;;;6287626;22;20086;-91
2023/01/20 00:22:15;;;;;;;4.85;2.13;;;;;;;;;;6277694;22;20023;-90
2023/01/20 00:25:09;;;;;;;7.28;2.33;;;;;;;;;;6317175;22;20022;-92
2023/01/20 00:27:37;;;;;;;5.55;2.00;;;;;;;;;;6289166;22;20443;-90
2023/01/20 00:30:05;;;;;;;7.47;2.78;;;;;;;;;;6294620;22;20019;-92
2023/01/20 00:32:43;;;;;;;6.88;1.95;;;;;;;;;;6237329;22;20019;-91
2023/01/20 00:35:36;;;;;;;4.53;1.85;;;;;;;;;;6269971;22;20003;-92
2023/01/20 00:38:29;;;;;;;3.80;1.85;;;;;;;;;;6262190;22;20433;-91
2023/01/20 00:40:57;;;;;;;8.63;1.95;;;;;;;;;;6320620;22;20037;-91
2023/01/20 00:43:25;;;;;;;15.05;2.20;;;;;;;;;;6279435;22;20015;-92
2023/01/20 00:46:17;;;;;;;6.38;2.13;;;;;;;;;;6264742;22;20036;-92
2023/01/20 00:48:45;;;;;;;5.70;1.98;;;;;;;;;;6258388;22;20022;-91
2023/01/20 00:51:13;;;;;;;4.95;2.17;;;;;;;;;;6249047;22;20128;-90
2023/01/20 00:53:41;;;;;;;4.10;2.00;;;;;;;;;;6249111;22;20467;-91
2023/01/20 00:56:09;;;;;;;7.93;2.28;;;;;;;;;;6284946;22;20016;-92
2023/01/20 00:58:37;;;;;;;8.20;2.20;;;;;;;;;;6279132;22;20107;-92
2023/01/20 01:01:05;;;;;;;10.13;2.15;;;;;;;;;;6268274;22;20041;-91
2023/01/20 01:03:37;;;;;;;6.65;2.60;;;;;;;;;;6295015;22;20068;-92
2023/01/20 01:06:10;;;;;;;7.15;2.60;;;;;;;;;;6269115;22;20046;-91
2023/01/20 01:08:43;;;;;;;6.63;2.50;;;;;;;;;;6258567;22;20027;-92
2023/01/20 01:11:11;;;;;;;6.47;2.70;;;;;;;;;;6252230;22;20023;-92
2023/01/20 01:13:40;;;;;;;3.67;1.95;;;;;;;;;;6274774;22;20019;-92
2023/01/20 01:16:33;;;;;;;9.20;2.25;;;;;;;;;;6291989;22;20508;-91
2023/01/20 01:19:01;;;;;;;8.75;3.15;;;;;;;;;;6294074;22;20012;-92
2023/01/20 01:21:29;;;;;;;6.15;3.10;;;;;;;;;;6285565;22;20015;-91
2023/01/20 01:24:02;;;;;;;4.70;2.40;;;;;;;;;;6285553;22;20523;-92
2023/01/20 01:26:29;;;;;;;5.18;2.97;;;;;;;;;;6249822;22;20019;-92
2023/01/20 01:29:23;;;;;;;5.43;2.42;;;;;;;;;;6312869;22;20023;-92
2023/01/20 01:31:51;;;;;;;12.27;2.67;;;;;;;;;;6275249;22;20028;-92
2023/01/20 01:34:19;;;;;;;9.50;2.60;;;;;;;;;;6313870;22;20331;-93
2023/01/20 01:36:47;;;;;;;8.20;2.53;;;;;;;;;;6287431;22;20019;-92
2023/01/20 01:39:19;;;;;;;5.80;2.72;;;;;;;;;;6263745;22;20027;-92
2023/01/20 01:41:47;;;;;;;10.85;3.13;;;;;;;;;;6293028;22;20019;-92
2023/01/20 01:44:15;;;;;;;7.07;3.33;;;;;;;;;;6282772;22;20043;-91
2023/01/20 01:46:43;;;;;;;11.23;3.58;;;;;;;;;;6299234;22;20021;-92
2023/01/20 01:49:40;;;;;;;10.38;4.00;;;;;;;;;;6248176;22;20043;-92
2023/01/20 01:52:09;;;;;;;12.73;6.20;;;;;;;;;;6149952;23;20037;-92
2023/01/20 01:54:44;;;;;;;13.68;4.88;;;;;;;;;;6099064;23;20086;-91
2023/01/20 01:57:23;;;;;;;11.00;4.45;;;;;;;;;;6158641;23;20025;-92
2023/01/20 01:59:51;;;;;;;9.93;4.35;;;;;;;;;;6120028;23;20138;-92
2023/01/20 02:02:19;;;;;;;13.45;4.47;;;;;;;;;;6146781;23;20393;-92
2023/01/20 02:04:51;;;;;;;12.27;5.00;;;;;;;;;;6145993;23;20028;-91
2023/01/20 02:07:20;;;;;;;18.33;6.15;;;;;;;;;;6111696;23;20058;-91
2023/01/20 02:09:47;;;;;;;19.45;6.18;;;;;;;;;;6139067;23;20025;-91
2023/01/20 02:12:18;;;;;;;17.45;6.03;;;;;;;;;;6105114;23;20047;-91
2023/01/20 02:14:55;;;;;;;14.02;6.15;;;;;;;;;;6129735;23;20068;-91
2023/01/20 02:18:04;;;;;;;21.27;6.97;;;;;;;;;;6138884;23;20018;-91
2023/01/20 02:21:01;;;;;;;15.02;6.53;;;;;;;;;;6105647;23;20068;-90
2023/01/20 02:24:22;;;;;;;17.10;6.30;;;;;;;;;;6146088;23;20029;-91
2023/01/20 02:27:29;;;;;;;20.15;7.72;;;;;;;;;;6124909;23;20017;-91
2023/01/20 02:30:23;;;;;;;17.92;8.02;;;;;;;;;;6319743;22;20343;-90
2023/01/20 02:33:06;;;;;;;16.48;6.53;;;;;;;;;;6319552;22;20023;-90
2023/01/20 02:35:45;;;;;;;18.92;8.45;;;;;;;;;;6292548;22;20090;-91
2023/01/20 02:38:40;;;;;;;17.58;7.15;;;;;;;;;;6267290;22;20041;-91
2023/01/20 02:41:34;;;;;;;23.40;8.52;;;;;;;;;;6257434;22;20023;-91
2023/01/20 02:44:09;;;;;;;17.50;8.30;;;;;;;;;;6293463;22;20384;-91
2023/01/20 02:46:46;;;;;;;22.58;8.20;;;;;;;;;;6267211;22;20026;-91
2023/01/20 02:49:38;;;;;;;19.77;8.57;;;;;;;;;;6292939;22;20019;-91
2023/01/20 02:52:15;;;;;;;19.92;8.57;;;;;;;;;;6319327;22;20019;-91
2023/01/20 02:54:47;;;;;;;20.48;9.32;;;;;;;;;;6319872;22;20053;-91
2023/01/20 02:57:53;;;;;;;27.33;9.77;;;;;;;;;;6292086;22;20007;-91
2023/01/20 03:00:56;;;;;;;21.38;9.02;;;;;;;;;;6281907;22;20027;-91
2023/01/20 03:03:32;;;;;;;24.63;9.15;;;;;;;;;;6282338;22;20050;-91
2023/01/20 03:06:02;;;;;;;23.20;9.85;;;;;;;;;;6292425;22;20495;-91
2023/01/20 03:08:32;;;;;;;18.77;9.82;;;;;;;;;;6282229;22;20019;-91
2023/01/20 03:11:04;;;;;;;25.88;9.88;;;;;;;;;;6292428;22;20103;-90
2023/01/20 03:13:40;;;;;;;19.73;8.65;;;;;;;;;;6256368;22;20343;-91
2023/01/20 03:16:10;;;;;;;22.25;8.75;;;;;;;;;;6292590;22;20082;-91
2023/01/20 03:18:39;;;;;;;22.83;9.77;;;;;;;;;;6319556;22;20015;-91
2023/01/20 03:21:08;;;;;;;20.17;8.75;;;;;;;;;;6319549;22;20379;-91
2023/01/20 03:23:48;;;;;;;18.27;8.80;;;;;;;;;;6257989;22;20439;-91
2023/01/20 03:26:39;;;;;;;29.30;10.45;;;;;;;;;;6292557;22;20003;-91
2023/01/20 03:29:10;;;;;;;21.23;9.57;;;;;;;;;;6292921;22;20027;-91
2023/01/20 03:31:49;;;;;;;24.33;10.15;;;;;;;;;;6267550;22;20042;-91
2023/01/20 03:34:25;;;;;;;26.50;10.95;;;;;;;;;;6293264;22;20023;-91
2023/01/20 03:36:55;;;;;;;21.30;10.07;;;;;;;;;;6292807;22;20019;-91
2023/01/20 03:39:23;;;;;;;31.88;10.73;;;;;;;;;;6293578;22;20397;-91
2023/01/20 03:42:51;;;;;;;25.55;9.82;;;;;;;;;;6298013;22;20023;-91
2023/01/20 03:45:54;;;;;;;24.42;10.85;;;;;;;;;;6231599;22;20045;-91
2023/01/20 03:48:55;;;;;;;28.17;10.57;;;;;;;;;;6292404;22;20016;-90
2023/01/20 03:51:36;;;;;;;26.40;11.55;;;;;;;;;;6193968;23;20033;-91
2023/01/20 03:54:17;;;;;;;26.77;11.50;;;;;;;;;;6193960;23;20049;-91
2023/01/20 03:57:15;;;;;;;24.92;11.73;;;;;;;;;;6174619;23;20530;-91
2023/01/20 03:59:46;;;;;;;31.88;11.27;;;;;;;;;;6195239;23;20536;-91
2023/01/20 04:02:21;;;;;;;28.25;12.95;;;;;;;;;;6159245;23;20043;-91
2023/01/20 04:04:51;;;;;;;30.25;12.18;;;;;;;;;;6193898;23;20091;-91
2023/01/20 04:07:24;;;;;;;30.55;12.55;;;;;;;;;;6135019;23;20373;-91
2023/01/20 04:10:17;;;;;;;29.20;12.85;;;;;;;;;;6193765;23;20012;-91
2023/01/20 04:12:45;;;;;;;39.75;14.13;;;;;;;;;;6194350;23;20028;-90
2023/01/20 04:15:13;;;;;;;34.75;14.90;;;;;;;;;;6193514;23;20037;-91
2023/01/20 04:17:41;;;;;;;29.38;12.38;;;;;;;;;;6168930;23;20020;-91
2023/01/20 04:20:33;;;;;;;35.95;12.80;;;;;;;;;;6169621;23;20027;-91
2023/01/20 04:23:01;;;;;;;35.55;13.65;;;;;;;;;;6193815;23;20025;-91
2023/01/20 04:25:31;;;;;;;37.50;12.85;;;;;;;;;;6159187;23;20109;-91
2023/01/20 04:27:59;;;;;;;30.23;12.45;;;;;;;;;;6228965;22;20042;-91
2023/01/20 04:30:27;;;;;;;38.75;14.88;;;;;;;;;;6267036;22;20057;-91
2023/01/20 04:32:55;;;;;;;31.23;14.15;;;;;;;;;;6292340;22;20015;-91
2023/01/20 04:35:23;;;;;;;30.85;13.02;;;;;;;;;;6291552;22;20019;-91
2023/01/20 04:37:51;;;;;;;36.28;13.98;;;;;;;;;;6284747;22;20068;-91
2023/01/20 04:40:19;;;;;;;30.02;12.35;;;;;;;;;;6291225;22;20015;-91
2023/01/20 04:42:47;;;;;;;38.33;12.65;;;;;;;;;;6291353;22;20351;-91
2023/01/20 04:45:16;;;;;;;36.40;13.35;;;;;;;;;;6318756;22;20030;-91
2023/01/20 04:47:45;;;;;;;34.47;12.95;;;;;;;;;;6291853;22;20016;-91
2023/01/20 04:50:14;;;;;;;32.28;13.65;;;;;;;;;;6292199;22;20098;-91
2023/01/20 04:52:41;;;;;;;38.53;14.32;;;;;;;;;;6266798;22;20030;-91
2023/01/20 04:55:15;;;;;;;34.25;13.60;;;;;;;;;;6256158;22;20076;-91
2023/01/20 04:57:50;;;;;;;35.08;14.50;;;;;;;;;;6267965;22;20007;-91
2023/01/20 05:00:21;;;;;;;39.97;14.13;;;;;;;;;;6291698;22;20044;-91
2023/01/20 05:02:56;;;;;;;33.53;13.23;;;;;;;;;;6289568;22;20034;-91
2023/01/20 05:05:58;;;;;;;32.47;13.25;;;;;;;;;;6279491;22;20019;-90
2023/01/20 05:08:27;;;;;;;31.65;12.52;;;;;;;;;;6291591;22;20447;-91
2023/01/20 05:10:55;;;;;;;34.35;13.73;;;;;;;;;;6291269;22;20097;-92
2023/01/20 05:13:23;;;;;;;35.63;13.15;;;;;;;;;;6290717;22;20099;-91
2023/01/20 05:15:51;;;;;;;34.47;13.18;;;;;;;;;;6291510;22;20019;-91
2023/01/20 05:18:23;;;;;;;32.58;13.63;;;;;;;;;;6291840;22;20042;-91
2023/01/20 05:20:55;;;;;;;41.72;12.38;;;;;;;;;;6281963;22;20015;-91
2023/01/20 05:23:23;;;;;;;33.72;13.48;;;;;;;;;;6318123;22;20015;-91
2023/01/20 05:25:55;;;;;;;33.20;12.20;;;;;;;;;;6291178;22;20019;-91
2023/01/20 05:28:23;;;;;;;36.10;13.02;;;;;;;;;;6291213;22;20232;-91
2023/01/20 05:30:51;;;;;;;29.42;10.93;;;;;;;;;;6255044;22;20069;-91
2023/01/20 05:33:28;;;;;;;28.98;12.70;;;;;;;;;;6254559;22;20358;-91
2023/01/20 05:36:08;;;;;;;31.08;12.15;;;;;;;;;;6292654;22;20065;-91
2023/01/20 05:39:01;;;;;;;30.75;12.65;;;;;;;;;;6296278;22;20061;-91
2023/01/20 05:41:29;;;;;;;31.05;11.82;;;;;;;;;;6254594;22;20042;-91
2023/01/20 05:43:57;;;;;;;26.30;11.60;;;;;;;;;;6280264;22;20023;-91
2023/01/20 05:46:25;;;;;;;34.00;12.77;;;;;;;;;;6290360;22;20064;-91
2023/01/20 05:48:57;;;;;;;36.10;12.75;;;;;;;;;;6254877;22;20517;-91
2023/01/20 05:51:25;;;;;;;31.17;12.30;;;;;;;;;;6317868;22;20019;-89
2023/01/20 05:53:57;;;;;;;38.53;12.50;;;;;;;;;;6266358;22;20015;-90
2023/01/20 05:56:25;;;;;;;26.88;11.95;;;;;;;;;;6254651;22;20561;-91
2023/01/20 05:58:54;;;;;;;32.17;12.43;;;;;;;;;;6290591;22;20019;-91
2023/01/20 06:01:23;;;;;;;28.90;11.80;;;;;;;;;;6290340;22;20372;-90
2023/01/20 06:03:51;;;;;;;33.13;11.38;;;;;;;;;;6264560;22;20030;-91
2023/01/20 06:06:19;;;;;;;34.33;12.70;;;;;;;;;;6290098;22;20026;-91
2023/01/20 06:08:48;;;;;;;29.52;11.25;;;;;;;;;;6290110;22;20439;-91
2023/01/20 06:11:16;;;;;;;31.13;11.85;;;;;;;;;;6290787;22;20030;-91
2023/01/20 06:17:05;;;;;;;26.52;10.98;;;;;;;;;;6279082;22;20011;-91
2023/01/20 06:19:57;;;;;;;32.03;12.30;;;;;;;;;;6292004;22;20003;-91
2023/01/20 06:22:25;;;;;;;29.77;10.30;;;;;;;;;;6294531;22;20446;-92
2023/01/20 06:24:53;;;;;;;35.03;11.60;;;;;;;;;;6261061;22;20030;-92
2023/01/20 06:27:21;;;;;;;29.42;11.07;;;;;;;;;;6318220;22;20014;-91
2023/01/20 06:29:49;;;;;;;33.80;13.38;;;;;;;;;;6295219;22;20045;-92
2023/01/20 06:32:17;;;;;;;33.55;10.18;;;;;;;;;;6282953;22;20047;-93
2023/01/20 06:34:45;;;;;;;24.98;10.90;;;;;;;;;;6255998;22;20030;-92
2023/01/20 06:37:13;;;;;;;28.13;11.05;;;;;;;;;;6265452;22;20026;-94
2023/01/20 06:39:41;;;;;;;29.83;11.02;;;;;;;;;;6268122;22;20086;-92
2023/01/20 06:42:09;;;;;;;27.35;10.43;;;;;;;;;;6263518;22;20043;-92
2023/01/20 06:44:42;;;;;;;27.17;9.85;;;;;;;;;;6276578;22;20028;-92
2023/01/20 06:47:35;;;;;;;28.92;10.70;;;;;;;;;;6256151;22;20439;-93
2023/01/20 06:50:29;;;;;;;29.50;10.55;;;;;;;;;;6289595;22;20011;-92
2023/01/20 06:53:01;;;;;;;23.50;9.65;;;;;;;;;;6253315;22;20098;-93
2023/01/20 06:55:29;;;;;;;31.55;10.52;;;;;;;;;;6264468;22;20019;-91
2023/01/20 06:58:01;;;;;;;29.20;10.23;;;;;;;;;;6290510;22;20015;-92
2023/01/20 07:00:29;;;;;;;28.15;11.10;;;;;;;;;;6289826;22;20042;-93
2023/01/20 07:02:57;;;;;;;24.42;10.35;;;;;;;;;;6289730;22;20093;-94
2023/01/20 07:05:37;;;;;;;31.20;10.82;;;;;;;;;;6290097;22;20034;-94
2023/01/20 07:08:11;;;;;;;29.60;10.40;;;;;;;;;;6251714;22;20357;-93
2023/01/20 07:10:43;;;;;;;26.75;12.05;;;;;;;;;;6286454;22;20023;-92
2023/01/20 07:13:17;;;;;;;28.70;11.73;;;;;;;;;;6288691;22;20019;-93
2023/01/20 07:15:45;;;;;;;29.63;10.32;;;;;;;;;;6275554;22;20019;-92
2023/01/20 07:21:10;;;;;;;30.27;11.25;;;;;;;;;;6276998;22;20361;-93
2023/01/20 07:23:37;;;;;;;29.90;12.05;;;;;;;;;;6251138;22;20043;-93
2023/01/20 07:26:08;;;;;;;28.77;11.38;;;;;;;;;;6277047;22;20045;-93
2023/01/20 07:28:41;;;;;;;32.30;10.90;;;;;;;;;;6287101;22;20089;-92
2023/01/20 07:31:17;;;;;;;34.33;11.63;;;;;;;;;;6285196;22;20015;-92
2023/01/20 07:33:45;;;;;;;31.55;11.25;;;;;;;;;;6249319;22;20041;-93
2023/01/20 07:36:19;;;;;;;28.23;11.13;;;;;;;;;;6251717;22;20023;-93
2023/01/20 07:38:51;;;;;;;33.90;11.90;;;;;;;;;;6289750;22;20035;-93
2023/01/20 07:41:20;;;;;;;28.85;11.60;;;;;;;;;;6264009;22;20041;-93
2023/01/20 07:43:51;;;;;;;33.60;11.52;;;;;;;;;;6277714;22;20393;-94
2023/01/20 07:46:45;;;;;;;31.92;11.45;;;;;;;;;;6251215;22;20011;-94
2023/01/20 07:49:17;;;;;;;26.35;11.13;;;;;;;;;;6253537;22;20023;-93
2023/01/20 07:51:45;;;;;;;31.08;10.98;;;;;;;;;;6253154;22;20569;-93
2023/01/20 07:54:17;;;;;;;28.00;10.25;;;;;;;;;;6288486;22;20019;-93
2023/01/20 07:56:45;;;;;;;31.02;11.07;;;;;;;;;;6227629;22;20019;-93
2023/01/20 07:59:13;;;;;;;29.45;11.77;;;;;;;;;;6252432;22;20022;-94
2023/01/20 08:01:41;;;;;;;37.92;10.45;;;;;;;;;;6251462;22;20093;-94
2023/01/20 08:04:16;;;;;;;32.65;12.82;;;;;;;;;;6229087;22;20383;-93
2023/01/20 08:06:49;;;;;;;29.75;11.07;;;;;;;;;;6289153;22;20019;-92
2023/01/20 08:09:17;;;;;;;25.05;11.13;;;;;;;;;;6278461;22;20026;-93
2023/01/20 08:11:46;;;;;;;28.65;11.10;;;;;;;;;;6278663;22;20057;-92
2023/01/20 08:14:39;;;;;;;28.35;10.27;;;;;;;;;;6284491;22;20023;-94
2023/01/20 08:17:07;;;;;;;26.42;9.98;;;;;;;;;;6314267;22;20018;-93
2023/01/20 08:19:59;;;;;;;31.05;10.85;;;;;;;;;;6268672;22;20007;-93
2023/01/20 08:25:27;;;;;;;29.33;9.43;;;;;;;;;;6289308;22;20012;-93
2023/01/20 08:27:55;;;;;;;22.90;9.55;;;;;;;;;;6264174;22;20012;-93
2023/01/20 08:30:23;;;;;;;25.33;10.27;;;;;;;;;;6253607;22;20034;-93
2023/01/20 08:32:58;;;;;;;29.45;10.30;;;;;;;;;;6252598;22;20015;-93
2023/01/20 08:35:51;;;;;;;28.33;10.30;;;;;;;;;;6289839;22;20003;-93
2023/01/20 08:38:19;;;;;;;25.75;9.82;;;;;;;;;;6253710;22;20068;-93
2023/01/20 08:40:47;;;;;;;27.25;10.15;;;;;;;;;;6290791;22;20019;-93
2023/01/20 08:43:15;;;;;;;27.05;9.48;;;;;;;;;;6229122;22;20027;-92
2023/01/20 08:45:44;;;;;;;29.20;10.07;;;;;;;;;;6229244;22;20026;-94
2023/01/20 08:48:13;;;;;;;24.58;9.52;;;;;;;;;;6265155;22;20018;-93
2023/01/20 08:50:41;;;;;;;28.17;9.32;;;;;;;;;;6256652;22;20023;-93
2023/01/20 08:56:01;;;;;;;24.95;9.55;;;;;;;;;;6281821;22;20023;-93
2023/01/20 08:58:35;;;;;;;21.88;8.65;;;;;;;;;;6293190;22;20021;-93
2023/01/20 09:01:15;;;;;;;26.70;9.68;;;;;;;;;;6291853;22;20076;-93
2023/01/20 09:03:43;;;;;;;23.48;8.82;;;;;;;;;;6280469;22;20019;-93
2023/01/20 09:06:38;;;;;;;23.70;8.77;;;;;;;;;;6289571;22;20015;-92
2023/01/20 09:09:05;;;;;;;21.75;8.27;;;;;;;;;;6290145;22;20069;-93
2023/01/20 09:11:33;;;;;;;23.63;9.52;;;;;;;;;;6289920;22;20352;-93
2023/01/20 09:14:01;;;;;;;20.52;7.63;;;;;;;;;;6253524;22;20026;-93
2023/01/20 09:16:29;;;;;;;22.67;8.45;;;;;;;;;;6288644;22;20068;-93
2023/01/20 09:18:57;;;;;;;26.00;9.25;;;;;;;;;;6287996;22;20075;-93
2023/01/20 09:21:29;;;;;;;22.30;8.07;;;;;;;;;;6264938;22;20015;-93
2023/01/20 09:23:57;;;;;;;24.15;9.45;;;;;;;;;;6287190;22;20023;-93
2023/01/20 09:29:18;;;;;;;25.25;8.43;;;;;;;;;;6287747;22;20019;-93
2023/01/20 09:31:52;;;;;;;23.15;8.88;;;;;;;;;;6251685;22;20023;-93
2023/01/20 09:34:28;;;;;;;23.08;9.38;;;;;;;;;;6314880;22;20095;-93
2023/01/20 09:43:52;;;;;;;29.95;9.73;;;;;;;;;;6259579;22;20039;-93
2023/01/20 09:43:53;;;;;;;20.45;8.13;;;;;;;;;;6252142;22;20081;-93
2023/01/20 09:47:35;;;;;;;22.77;8.15;;;;;;;;;;6275868;22;20023;-93
2023/01/20 09:54:27;;;;;;;25.60;9.93;;;;;;;;;;6098818;23;20079;-93
2023/01/20 09:57:06;;;;;;;27.50;9.55;;;;;;;;;;6043700;23;20026;-92
2023/01/20 09:59:45;;;;;;;20.13;8.75;;;;;;;;;;6076803;23;20073;-93
2023/01/20 10:02:20;;;;;;;27.75;10.80;;;;;;;;;;6044617;23;20022;-93
2023/01/20 10:05:18;;;;;;;29.42;12.02;;;;;;;;;;6083429;23;20093;-92
2023/01/20 10:07:57;;;;;;;25.05;10.40;;;;;;;;;;6055193;23;20482;-92
2023/01/20 10:10:34;;;;;;;24.10;9.55;;;;;;;;;;6070308;23;20478;-93
2023/01/20 10:13:15;;;;;;;31.23;10.75;;;;;;;;;;6077925;23;20510;-93
2023/01/20 10:15:52;;;;;;;26.40;10.20;;;;;;;;;;6022014;23;20026;-93
2023/01/20 10:18:45;;;;;;;29.90;11.20;;;;;;;;;;6076213;23;20022;-93
2023/01/20 10:21:26;;;;;;;26.52;10.70;;;;;;;;;;6068111;23;20928;-93
2023/01/20 10:23:59;;;;;;;37.53;13.30;;;;;;;;;;6078775;23;20418;-93
2023/01/20 10:26:38;;;;;;;29.40;12.27;;;;;;;;;;6095869;23;20025;-93
2023/01/20 10:29:10;;;;;;;32.83;11.90;;;;;;;;;;6252237;22;20012;-93
2023/01/20 10:34:44;;;;;;;24.00;10.13;;;;;;;;;;6289095;22;20023;-92
2023/01/20 10:37:16;;;;;;;33.15;11.00;;;;;;;;;;6253494;22;20102;-94
2023/01/20 10:40:35;;;;;;;29.65;9.98;;;;;;;;;;6294571;22;20068;-93
2023/01/20 10:43:12;;;;;;;29.13;11.13;;;;;;;;;;6276933;22;20030;-93
2023/01/20 10:46:07;;;;;;;31.80;12.57;;;;;;;;;;6288487;22;20027;-93
2023/01/20 10:48:57;;;;;;;30.45;11.70;;;;;;;;;;6251872;22;20022;-93
2023/01/20 10:51:41;;;;;;;24.65;11.00;;;;;;;;;;6287459;22;20486;-93
2023/01/20 10:54:18;;;;;;;27.75;11.93;;;;;;;;;;6287836;22;20015;-94
2023/01/20 10:56:52;;;;;;;30.58;11.70;;;;;;;;;;6288057;22;20019;-94
2023/01/20 10:59:43;;;;;;;33.13;11.60;;;;;;;;;;6263252;22;20042;-94
2023/01/20 11:02:23;;;;;;;29.08;10.45;;;;;;;;;;6276550;22;20759;-93
2023/01/20 11:04:58;;;;;;;26.50;11.00;;;;;;;;;;6288279;22;20023;-93
2023/01/20 11:07:35;;;;;;;25.67;10.10;;;;;;;;;;6276370;22;20029;-93
2023/01/20 11:10:23;;;;;;;22.55;10.05;;;;;;;;;;6253322;22;20011;-93
2023/01/20 11:12:55;;;;;;;28.83;9.82;;;;;;;;;;6287939;22;20038;-92
2023/01/20 11:15:55;;;;;;;20.25;8.85;;;;;;;;;;6232068;22;20324;-93
2023/01/20 11:18:26;;;;;;;20.90;8.07;;;;;;;;;;6261525;22;20026;-93
2023/01/20 11:21:25;;;;;;;23.48;8.63;;;;;;;;;;6294492;22;20019;-93
2023/01/20 11:23:54;;;;;;;22.73;9.00;;;;;;;;;;6252977;22;20721;-93
2023/01/20 11:26:47;;;;;;;21.98;8.23;;;;;;;;;;6278023;22;20102;-93
2023/01/20 11:29:15;;;;;;;22.92;8.45;;;;;;;;;;6287711;22;20011;-93
2023/01/20 11:31:46;;;;;;;26.02;8.88;;;;;;;;;;6227645;22;20012;-93
2023/01/20 11:34:20;;;;;;;20.20;8.73;;;;;;;;;;6252856;22;20026;-93
2023/01/20 11:37:09;;;;;;;28.77;8.50;;;;;;;;;;6263643;22;20023;-93
2023/01/20 11:39:48;;;;;;;22.92;8.32;;;;;;;;;;6315773;22;20011;-92
2023/01/20 11:42:19;;;;;;;25.73;8.52;;;;;;;;;;6289094;22;20029;-93
2023/01/20 11:44:48;;;;;;;19.38;7.50;;;;;;;;;;6253000;22;20367;-92
2023/01/20 11:47:29;;;;;;;21.63;8.15;;;;;;;;;;6251736;22;20455;-93
2023/01/20 11:50:03;;;;;;;20.23;9.48;;;;;;;;;;6263465;22;20015;-93
2023/01/20 11:52:41;;;;;;;22.48;7.78;;;;;;;;;;6227553;22;20030;-93
2023/01/20 11:55:12;;;;;;;21.73;8.57;;;;;;;;;;6287931;22;20021;-92
2023/01/20 11:58:05;;;;;;;18.98;8.88;;;;;;;;;;6255606;22;20451;-93
2023/01/20 12:01:02;;;;;;;22.65;8.50;;;;;;;;;;6231171;22;20011;-93
2023/01/20 12:03:53;;;;;;;20.58;8.32;;;;;;;;;;6227382;22;20019;-93
2023/01/20 12:06:29;;;;;;;22.98;9.75;;;;;;;;;;6251995;22;20054;-93
2023/01/20 12:09:09;;;;;;;24.38;8.40;;;;;;;;;;6315202;22;20355;-93
2023/01/20 12:11:58;;;;;;;20.25;7.75;;;;;;;;;;6287676;22;20019;-93
2023/01/20 12:14:33;;;;;;;29.33;9.98;;;;;;;;;;6287374;22;20019;-93
2023/01/20 12:17:43;;;;;;;21.42;8.38;;;;;;;;;;6230162;22;20459;-93
2023/01/20 12:20:34;;;;;;;19.30;7.28;;;;;;;;;;6262835;22;20015;-93
2023/01/20 12:23:59;;;;;;;23.63;7.80;;;;;;;;;;6276513;22;20018;-93
2023/01/20 12:26:33;;;;;;;17.15;7.60;;;;;;;;;;6261611;22;20038;-92
2023/01/20 12:29:24;;;;;;;20.00;8.05;;;;;;;;;;6260460;22;20090;-93
2023/01/20 12:31:53;;;;;;;17.77;6.80;;;;;;;;;;6225320;22;20111;-94
2023/01/20 12:34:29;;;;;;;16.85;6.75;;;;;;;;;;6276893;22;20019;-91
2023/01/20 12:37:42;;;;;;;20.67;6.97;;;;;;;;;;6250901;22;20446;-93
2023/01/20 12:40:39;;;;;;;24.50;7.65;;;;;;;;;;6251221;22;20534;-93
2023/01/20 12:43:40;;;;;;;14.98;6.22;;;;;;;;;;6294246;22;20023;-93
2023/01/20 12:46:37;;;;;;;19.77;7.15;;;;;;;;;;6277077;22;20027;-93
2023/01/20 12:49:18;;;;;;;19.90;7.18;;;;;;;;;;6225854;22;20113;-93
2023/01/20 12:52:21;;;;;;;18.70;7.75;;;;;;;;;;6287337;22;20015;-94
2023/01/20 12:55:10;;;;;;;19.60;7.63;;;;;;;;;;6289156;22;20011;-93
2023/01/20 12:57:49;;;;;;;17.92;6.38;;;;;;;;;;6263067;22;20108;-93
2023/01/20 13:00:39;;;;;;;16.55;6.88;;;;;;;;;;6261260;22;20011;-93
2023/01/20 13:03:25;;;;;;;21.90;7.25;;;;;;;;;;6285260;22;20015;-93
2023/01/20 13:06:36;;;;;;;24.05;8.05;;;;;;;;;;6225714;22;20565;-93
2023/01/20 13:09:08;;;;;;;20.73;6.95;;;;;;;;;;6107790;23;20025;-92
2023/01/20 13:11:52;;;;;;;16.15;6.65;;;;;;;;;;6111020;23;20045;-93
2023/01/20 13:14:30;;;;;;;19.25;6.28;;;;;;;;;;6080242;23;20215;-93
2023/01/20 13:17:11;;;;;;;20.13;7.50;;;;;;;;;;6097745;23;20025;-93
2023/01/20 13:19:40;;;;;;;18.40;7.95;;;;;;;;;;6123668;23;20021;-93
2023/01/20 13:22:13;;;;;;;19.77;7.82;;;;;;;;;;6099596;23;20017;-93
2023/01/20 13:24:44;;;;;;;20.95;8.20;;;;;;;;;;6109683;23;20029;-93
2023/01/20 13:27:16;;;;;;;18.52;7.95;;;;;;;;;;6099332;23;20017;-93
2023/01/20 13:29:49;;;;;;;19.95;7.32;;;;;;;;;;6123368;23;20017;-93
2023/01/20 13:32:41;;;;;;;17.02;6.85;;;;;;;;;;6109565;23;20033;-93
2023/01/20 13:35:24;;;;;;;21.02;7.85;;;;;;;;;;6133341;23;20126;-93
2023/01/20 13:38:00;;;;;;;23.23;7.60;;;;;;;;;;6076881;23;20438;-93
2023/01/20 13:40:31;;;;;;;16.77;7.35;;;;;;;;;;6125236;23;20451;-92
2023/01/20 13:43:23;;;;;;;16.80;7.22;;;;;;;;;;6115076;23;20028;-92
2023/01/20 13:46:06;;;;;;;16.00;6.38;;;;;;;;;;6270462;22;20027;-93
2023/01/20 13:49:02;;;;;;;19.23;6.95;;;;;;;;;;6250950;22;20058;-93
2023/01/20 13:51:37;;;;;;;13.88;6.75;;;;;;;;;;6262028;22;20039;-92
2023/01/20 13:54:24;;;;;;;21.25;7.63;;;;;;;;;;6229674;22;20101;-91
2023/01/20 13:56:51;;;;;;;23.00;7.72;;;;;;;;;;6251445;22;20026;-93
2023/01/20 13:59:19;;;;;;;21.95;7.78;;;;;;;;;;6285988;22;20497;-92
2023/01/20 14:01:47;;;;;;;20.92;8.38;;;;;;;;;;6288270;22;20011;-93
2023/01/20 14:04:20;;;;;;;19.25;8.45;;;;;;;;;;6289265;22;20015;-92
2023/01/20 14:06:51;;;;;;;18.95;7.25;;;;;;;;;;6227043;22;20018;-92
2023/01/20 14:09:24;;;;;;;18.42;8.25;;;;;;;;;;6263564;22;20015;-93
2023/01/20 14:11:56;;;;;;;21.83;8.27;;;;;;;;;;6277870;22;20383;-93
2023/01/20 14:14:31;;;;;;;22.77;8.15;;;;;;;;;;6277599;22;20395;-92
2023/01/20 14:17:27;;;;;;;19.10;7.45;;;;;;;;;;6275551;22;20019;-93
2023/01/20 14:20:01;;;;;;;19.92;7.85;;;;;;;;;;6251154;22;20360;-93
2023/01/20 14:22:53;;;;;;;17.40;7.57;;;;;;;;;;6277348;22;20030;-93
2023/01/20 14:26:07;;;;;;;16.30;7.57;;;;;;;;;;6297084;22;20023;-92
2023/01/20 14:29:43;;;;;;;21.92;7.60;;;;;;;;;;6277100;22;20007;-93
2023/01/20 14:32:33;;;;;;;27.05;7.50;;;;;;;;;;6287100;22;20022;-93
2023/01/20 14:35:11;;;;;;;20.27;8.50;;;;;;;;;;6276132;22;20015;-92
2023/01/20 14:38:16;;;;;;;20.27;8.43;;;;;;;;;;6256463;22;20019;-93
2023/01/20 14:43:47;;;;;;;19.15;7.85;;;;;;;;;;6286770;22;20073;-93
2023/01/20 14:46:16;;;;;;;20.50;8.13;;;;;;;;;;6250177;22;20019;-94
2023/01/20 14:48:55;;;;;;;26.65;8.00;;;;;;;;;;6228163;22;20068;-93
2023/01/20 14:51:29;;;;;;;18.65;7.95;;;;;;;;;;6253335;22;20023;-92
2023/01/20 14:54:34;;;;;;;18.77;7.57;;;;;;;;;;6290105;22;20281;-94
2023/01/20 14:57:26;;;;;;;17.73;7.63;;;;;;;;;;6312168;22;20074;-92
2023/01/20 15:00:26;;;;;;;17.38;7.28;;;;;;;;;;6255176;22;20031;-91
2023/01/20 15:03:04;;;;;;;18.60;8.27;;;;;;;;;;6261164;22;20023;-91
2023/01/20 15:05:58;;;;;;;17.05;7.07;;;;;;;;;;6277202;22;20072;-92
2023/01/20 15:08:33;;;;;;;19.02;7.72;;;;;;;;;;6254337;22;20015;-91
2023/01/20 15:11:17;;;;;;;16.13;7.80;;;;;;;;;;6260007;22;20015;-91
2023/01/20 15:14:01;;;;;;;18.17;7.18;;;;;;;;;;6276877;22;20026;-91
2023/01/20 15:16:45;;;;;;;19.00;8.48;;;;;;;;;;6261262;22;20080;-92
2023/01/20 15:19:30;;;;;;;15.77;7.40;;;;;;;;;;6227413;22;20023;-91
2023/01/20 15:22:25;;;;;;;22.08;8.13;;;;;;;;;;6275289;22;20500;-92
2023/01/20 15:25:11;;;;;;;17.45;7.95;;;;;;;;;;6315133;22;20012;-92
2023/01/20 15:27:43;;;;;;;17.17;7.72;;;;;;;;;;6164667;23;20025;-93
2023/01/20 15:30:20;;;;;;;22.25;7.97;;;;;;;;;;6163368;23;20626;-93
2023/01/20 15:32:50;;;;;;;17.88;7.40;;;;;;;;;;6130676;23;20060;-92
2023/01/20 15:35:26;;;;;;;22.13;7.35;;;;;;;;;;6130388;23;20025;-94
2023/01/20 15:38:17;;;;;;;15.63;7.32;;;;;;;;;;6152067;23;20468;-93
2023/01/20 15:40:45;;;;;;;18.48;7.35;;;;;;;;;;6166269;23;20017;-95
2023/01/20 15:43:17;;;;;;;24.02;8.23;;;;;;;;;;6107535;23;20021;-95
2023/01/20 15:45:47;;;;;;;17.75;7.47;;;;;;;;;;6163922;23;20029;-94
2023/01/20 15:48:20;;;;;;;17.70;7.72;;;;;;;;;;6139188;23;20024;-93
2023/01/20 15:50:50;;;;;;;19.92;8.13;;;;;;;;;;6128693;23;20437;-92
2023/01/20 15:53:23;;;;;;;19.77;8.32;;;;;;;;;;6128609;23;20025;-92
2023/01/20 15:55:51;;;;;;;22.77;8.80;;;;;;;;;;6163884;23;20056;-92
2023/01/20 15:58:43;;;;;;;22.40;8.85;;;;;;;;;;6186864;22;20015;-92